Rikki S — WDD3773 — position and weather

sailwx.info

Track history (hours):
 
Tides and Currents Weather Stations Pressure Air Temp Water Temp Dewpoint Dewpoint Depression Visibility Wind Speed Wind Dir Waves Ship Positions

Rikki S

Owner: P & L Towing $ Transportation, Inc., Southwest Ranches, FL. More information available from US FCC via Universal Licensing System and Coast Guard Vessel Documentation Center.

Last reported at 2018-Feb-24 04:01 UTC. Time now 2018-Feb-24 04:02 UTC.
Position N 40°41' W 074°04'.

Length 26 m; draft 3 m.

Type: Towing. MMSI: 367136020.

Date/timePositionNaut miles runAvg speedWind from/ knotsBaromVisibWave heightAir tempDewpointWater temp
2018-Feb-24 04:01N 40°41' W 074°04'0 0.0
2018-Feb-24 03:30N 40°41' W 074°04'0 0.0
2018-Feb-24 03:00N 40°41' W 074°04'0 0.0
2018-Feb-24 02:31N 40°41' W 074°04'0 0.0
2018-Feb-24 02:00N 40°41' W 074°04'0 0.0
2018-Feb-24 01:31N 40°41' W 074°04'0 0.0
2018-Feb-24 01:01N 40°41' W 074°04'0 0.0
2018-Feb-24 00:30N 40°41' W 074°04'0 0.0
2018-Feb-24 00:00N 40°41' W 074°04'0 0.0
2018-Feb-23 23:30N 40°41' W 074°04'0 0.0
2018-Feb-23 23:00N 40°41' W 074°04'0 0.3
2018-Feb-23 22:30N 40°41' W 074°04'0 0.0
2018-Feb-23 22:01N 40°41' W 074°04'1 2.8
2018-Feb-23 21:30N 40°39' W 074°05'5 9.1
2018-Feb-23 21:00N 40°39' W 074°11'8 0.2
2018-Feb-22 01:47N 40°31' W 074°15'2 5.3
2018-Feb-22 01:22N 40°33' W 074°14'2 5.9
2018-Feb-22 01:00N 40°35' W 074°12'3 5.9
2018-Feb-22 00:30N 40°38' W 074°12'0 0.0
2018-Feb-22 00:00N 40°38' W 074°12'0 0.0
2018-Feb-21 23:30N 40°38' W 074°12'0 0.0
2018-Feb-21 23:00N 40°38' W 074°12'0 0.8
2018-Feb-21 22:30N 40°38' W 074°12'5 6.0
2018-Feb-21 21:44N 40°33' W 074°13'9 0.2
2018-Feb-19 17:50N 40°29' W 074°03'2 7.2
2018-Feb-19 17:30N 40°29' W 073°60'32 8.2
2018-Feb-19 13:34N 39°57' W 074°01'1 8.7
2018-Feb-19 13:28N 39°56' W 074°02'9 8.4
2018-Feb-19 12:27N 39°48' W 074°04'4 8.2
2018-Feb-19 11:59N 39°44' W 074°04'5 8.2
2018-Feb-19 11:26N 39°39' W 074°05'62 6.1
2018-Feb-19 01:16N 39°04' W 075°11'2 8.2
2018-Feb-19 01:00N 39°06' W 075°12'4 8.7
2018-Feb-19 00:30N 39°10' W 075°15'510.4
2018-Feb-19 00:00N 39°14' W 075°19'611.7
2018-Feb-18 23:31N 39°19' W 075°24'612.6
2018-Feb-18 23:00N 39°23' W 075°29'611.4
2018-Feb-18 22:30N 39°28' W 075°34'611.0
2018-Feb-18 22:00N 39°33' W 075°33'510.4
2018-Feb-18 21:31N 39°38' W 075°34'510.4
2018-Feb-18 21:00N 39°43' W 075°31'5 9.4
2018-Feb-18 20:30N 39°47' W 075°28'4 8.7
2018-Feb-18 20:00N 39°49' W 075°23'1 2.4
2018-Feb-18 19:30N 39°49' W 075°22'0 0.0
2018-Feb-18 19:00N 39°49' W 075°22'0 0.0
2018-Feb-18 18:30N 39°49' W 075°22'0 0.0
2018-Feb-18 18:00N 39°49' W 075°22'0 0.0
2018-Feb-18 17:30N 39°49' W 075°22'0 0.0
2018-Feb-18 17:00N 39°49' W 075°22'0 0.0
2018-Feb-18 16:30N 39°49' W 075°22'0 0.5
2018-Feb-18 16:00N 39°50' W 075°22'0 0.5
2018-Feb-18 15:30N 39°49' W 075°22'0 0.0
2018-Feb-18 15:01N 39°49' W 075°22'0 0.0
2018-Feb-18 14:30N 39°49' W 075°22'0 0.0
2018-Feb-18 14:01N 39°49' W 075°22'0 0.0
2018-Feb-18 13:31N 39°49' W 075°22'0 0.0
2018-Feb-18 13:01N 39°49' W 075°22'0 0.0
2018-Feb-18 12:30N 39°49' W 075°22'0 0.5
2018-Feb-18 12:01N 39°50' W 075°22'0 0.0
2018-Feb-18 11:31N 39°50' W 075°22'0 0.0
2018-Feb-18 11:01N 39°50' W 075°22'0 0.0
2018-Feb-18 10:30N 39°50' W 075°22'0 0.0
2018-Feb-18 10:01N 39°50' W 075°22'0 0.0
2018-Feb-18 09:31N 39°50' W 075°22'0 0.0
2018-Feb-18 09:00N 39°50' W 075°22'0 0.0
2018-Feb-18 08:30N 39°50' W 075°22'0 0.0
2018-Feb-18 08:00N 39°50' W 075°22'0 0.0
2018-Feb-18 07:30N 39°50' W 075°22'0 0.0
2018-Feb-18 07:00N 39°50' W 075°22'0 0.0
2018-Feb-18 06:30N 39°50' W 075°22'0 0.0
2018-Feb-18 06:00N 39°50' W 075°22'0 0.0
2018-Feb-18 05:31N 39°50' W 075°22'0 0.0
2018-Feb-18 05:00N 39°50' W 075°22'0 0.0
2018-Feb-18 04:30N 39°50' W 075°22'0 0.0
2018-Feb-18 04:01N 39°50' W 075°22'0 0.0
2018-Feb-18 03:31N 39°50' W 075°22'0 0.0
2018-Feb-18 03:01N 39°50' W 075°22'0 0.0
2018-Feb-18 02:30N 39°50' W 075°22'0 0.0
2018-Feb-18 02:00N 39°50' W 075°22'0 0.0
2018-Feb-18 01:30N 39°50' W 075°22'0 0.0
2018-Feb-18 01:00N 39°50' W 075°22'0 0.0
2018-Feb-18 00:30N 39°50' W 075°22'0 0.0
2018-Feb-18 00:01N 39°50' W 075°22'0 0.0
2018-Feb-17 23:30N 39°50' W 075°22'0 0.0
2018-Feb-17 23:00N 39°50' W 075°22'0 0.0
2018-Feb-17 22:30N 39°50' W 075°22'0 0.0
2018-Feb-17 22:00N 39°50' W 075°22'0 0.0
2018-Feb-17 21:30N 39°50' W 075°22'0 0.2
2018-Feb-17 21:00N 39°50' W 075°21'0 0.2
2018-Feb-17 20:30N 39°50' W 075°21'0 0.0
2018-Feb-17 20:00N 39°50' W 075°21'0 0.0
2018-Feb-17 19:30N 39°50' W 075°21'0 0.0
2018-Feb-17 19:00N 39°50' W 075°21'0 0.0
2018-Feb-17 18:30N 39°50' W 075°21'0 0.0
2018-Feb-17 18:00N 39°50' W 075°21'0 0.0
2018-Feb-17 17:30N 39°50' W 075°21'0 0.0
2018-Feb-17 17:00N 39°50' W 075°21'0 0.0
2018-Feb-17 16:30N 39°50' W 075°21'0 0.6
2018-Feb-17 16:00N 39°49' W 075°22'0 0.0
2018-Feb-17 15:30N 39°49' W 075°22'0 0.0
2018-Feb-17 15:00N 39°49' W 075°22'0 0.0
2018-Feb-17 14:31N 39°49' W 075°22'0 0.0
2018-Feb-17 14:00N 39°49' W 075°22'0 0.0
2018-Feb-17 13:30N 39°49' W 075°22'0 0.0
2018-Feb-17 13:01N 39°49' W 075°22'0 0.0
2018-Feb-17 12:31N 39°49' W 075°22'0 0.0
2018-Feb-17 12:00N 39°49' W 075°22'0 0.0
2018-Feb-16 18:54N 39°49' W 075°22'0 0.0
2018-Feb-16 18:30N 39°49' W 075°22'0 0.1
2018-Feb-16 18:00N 39°49' W 075°22'0 0.0
2018-Feb-16 17:31N 39°49' W 075°22'0 0.1
2018-Feb-16 17:00N 39°49' W 075°22'0 0.5
2018-Feb-16 16:30N 39°50' W 075°22'0 0.0
2018-Feb-16 16:00N 39°50' W 075°22'0 0.5
2018-Feb-16 15:31N 39°49' W 075°22'0 0.0
2018-Feb-16 15:01N 39°49' W 075°22'0 0.0
2018-Feb-16 14:30N 39°49' W 075°22'0 0.0
2018-Feb-16 14:00N 39°49' W 075°22'0 0.0
2018-Feb-16 13:30N 39°49' W 075°22'0 0.0
2018-Feb-16 13:00N 39°49' W 075°22'0 0.0
2018-Feb-16 12:31N 39°49' W 075°22'0 0.0
2018-Feb-16 12:01N 39°49' W 075°22'0 0.0
2018-Feb-16 11:30N 39°49' W 075°22'0 0.0
2018-Feb-16 11:00N 39°49' W 075°22'0 0.0
2018-Feb-16 10:31N 39°49' W 075°22'0 0.0
2018-Feb-16 10:00N 39°49' W 075°22'0 0.0
2018-Feb-16 09:30N 39°49' W 075°22'0 0.0
2018-Feb-16 09:00N 39°49' W 075°22'0 0.0
2018-Feb-16 08:30N 39°49' W 075°22'0 0.0
2018-Feb-16 08:00N 39°49' W 075°22'0 0.0
2018-Feb-16 07:30N 39°49' W 075°22'0 0.0
2018-Feb-16 07:00N 39°49' W 075°22'0 0.0
2018-Feb-16 06:31N 39°49' W 075°22'0 0.0
2018-Feb-16 06:01N 39°49' W 075°22'0 0.0
2018-Feb-16 05:30N 39°49' W 075°22'0 0.0
2018-Feb-16 05:00N 39°49' W 075°22'0 0.0
2018-Feb-16 04:30N 39°49' W 075°22'0 0.0
2018-Feb-16 04:01N 39°49' W 075°22'0 0.0
2018-Feb-16 03:30N 39°49' W 075°22'0 0.0
2018-Feb-16 03:01N 39°49' W 075°22'0 0.0
2018-Feb-16 02:30N 39°49' W 075°22'0 0.0
2018-Feb-16 02:01N 39°49' W 075°22'0 0.0
2018-Feb-16 01:30N 39°49' W 075°22'1 0.3
2018-Feb-15 23:19N 39°50' W 075°23'2 6.3
2018-Feb-15 23:00N 39°48' W 075°25'3 5.8
2018-Feb-15 22:30N 39°47' W 075°28'3 5.8
2018-Feb-15 22:00N 39°44' W 075°30'3 5.7
2018-Feb-15 21:31N 39°42' W 075°31'3 6.7
2018-Feb-15 21:01N 39°39' W 075°33'3 5.6
2018-Feb-15 20:30N 39°36' W 075°34'3 6.0
2018-Feb-15 20:01N 39°33' W 075°32'3 6.2
2018-Feb-15 19:31N 39°30' W 075°33'3 5.9
2018-Feb-15 19:00N 39°27' W 075°33'3 6.3
2018-Feb-15 18:30N 39°25' W 075°31'2 4.9
2018-Feb-15 18:00N 39°23' W 075°29'2 3.6
2018-Feb-15 17:31N 39°22' W 075°27'3 5.9
2018-Feb-15 17:00N 39°20' W 075°25'6 7.0
2018-Feb-15 16:06N 39°15' W 075°19'1 7.1
2018-Feb-15 16:01N 39°14' W 075°19'5 7.1
2018-Feb-15 15:15N 39°10' W 075°15'2 7.1
2018-Feb-15 15:00N 39°08' W 075°14'5 7.1
2018-Feb-15 14:15N 39°04' W 075°10'  
Track history (hours):
 
Tides and Currents Weather Stations Pressure Air Temp Water Temp Dewpoint Dewpoint Depression Visibility Wind Speed Wind Dir Waves Ship Positions

Rikki S

Owner: P & L Towing $ Transportation, Inc., Southwest Ranches, FL. More information available from US FCC via Universal Licensing System and Coast Guard Vessel Documentation Center.

Last reported at 2018-Feb-24 04:01 UTC. Time now 2018-Feb-24 04:02 UTC.
Position N 40°41' W 074°04'.

Length 26 m; draft 3 m.

Type: Towing. MMSI: 367136020.

Date/timePositionNaut miles runAvg speedWind from/ knotsBaromVisibWave heightAir tempDewpointWater temp
2018-Feb-24 04:01N 40°41' W 074°04'0 0.0
2018-Feb-24 03:30N 40°41' W 074°04'0 0.0
2018-Feb-24 03:00N 40°41' W 074°04'0 0.0
2018-Feb-24 02:31N 40°41' W 074°04'0 0.0
2018-Feb-24 02:00N 40°41' W 074°04'0 0.0
2018-Feb-24 01:31N 40°41' W 074°04'0 0.0
2018-Feb-24 01:01N 40°41' W 074°04'0 0.0
2018-Feb-24 00:30N 40°41' W 074°04'0 0.0
2018-Feb-24 00:00N 40°41' W 074°04'0 0.0
2018-Feb-23 23:30N 40°41' W 074°04'0 0.0
2018-Feb-23 23:00N 40°41' W 074°04'0 0.3
2018-Feb-23 22:30N 40°41' W 074°04'0 0.0
2018-Feb-23 22:01N 40°41' W 074°04'1 2.8
2018-Feb-23 21:30N 40°39' W 074°05'5 9.1
2018-Feb-23 21:00N 40°39' W 074°11'8 0.2
2018-Feb-22 01:47N 40°31' W 074°15'2 5.3
2018-Feb-22 01:22N 40°33' W 074°14'2 5.9
2018-Feb-22 01:00N 40°35' W 074°12'3 5.9
2018-Feb-22 00:30N 40°38' W 074°12'0 0.0
2018-Feb-22 00:00N 40°38' W 074°12'0 0.0
2018-Feb-21 23:30N 40°38' W 074°12'0 0.0
2018-Feb-21 23:00N 40°38' W 074°12'0 0.8
2018-Feb-21 22:30N 40°38' W 074°12'5 6.0
2018-Feb-21 21:44N 40°33' W 074°13'9 0.2
2018-Feb-19 17:50N 40°29' W 074°03'2 7.2
2018-Feb-19 17:30N 40°29' W 073°60'32 8.2
2018-Feb-19 13:34N 39°57' W 074°01'1 8.7
2018-Feb-19 13:28N 39°56' W 074°02'9 8.4
2018-Feb-19 12:27N 39°48' W 074°04'4 8.2
2018-Feb-19 11:59N 39°44' W 074°04'5 8.2
2018-Feb-19 11:26N 39°39' W 074°05'62 6.1
2018-Feb-19 01:16N 39°04' W 075°11'2 8.2
2018-Feb-19 01:00N 39°06' W 075°12'4 8.7
2018-Feb-19 00:30N 39°10' W 075°15'510.4
2018-Feb-19 00:00N 39°14' W 075°19'611.7
2018-Feb-18 23:31N 39°19' W 075°24'612.6
2018-Feb-18 23:00N 39°23' W 075°29'611.4
2018-Feb-18 22:30N 39°28' W 075°34'611.0
2018-Feb-18 22:00N 39°33' W 075°33'510.4
2018-Feb-18 21:31N 39°38' W 075°34'510.4
2018-Feb-18 21:00N 39°43' W 075°31'5 9.4
2018-Feb-18 20:30N 39°47' W 075°28'4 8.7
2018-Feb-18 20:00N 39°49' W 075°23'1 2.4
2018-Feb-18 19:30N 39°49' W 075°22'0 0.0
2018-Feb-18 19:00N 39°49' W 075°22'0 0.0
2018-Feb-18 18:30N 39°49' W 075°22'0 0.0
2018-Feb-18 18:00N 39°49' W 075°22'0 0.0
2018-Feb-18 17:30N 39°49' W 075°22'0 0.0
2018-Feb-18 17:00N 39°49' W 075°22'0 0.0
2018-Feb-18 16:30N 39°49' W 075°22'0 0.5
2018-Feb-18 16:00N 39°50' W 075°22'0 0.5
2018-Feb-18 15:30N 39°49' W 075°22'0 0.0
2018-Feb-18 15:01N 39°49' W 075°22'0 0.0
2018-Feb-18 14:30N 39°49' W 075°22'0 0.0
2018-Feb-18 14:01N 39°49' W 075°22'0 0.0
2018-Feb-18 13:31N 39°49' W 075°22'0 0.0
2018-Feb-18 13:01N 39°49' W 075°22'0 0.0
2018-Feb-18 12:30N 39°49' W 075°22'0 0.5
2018-Feb-18 12:01N 39°50' W 075°22'0 0.0
2018-Feb-18 11:31N 39°50' W 075°22'0 0.0
2018-Feb-18 11:01N 39°50' W 075°22'0 0.0
2018-Feb-18 10:30N 39°50' W 075°22'0 0.0
2018-Feb-18 10:01N 39°50' W 075°22'0 0.0
2018-Feb-18 09:31N 39°50' W 075°22'0 0.0
2018-Feb-18 09:00N 39°50' W 075°22'0 0.0
2018-Feb-18 08:30N 39°50' W 075°22'0 0.0
2018-Feb-18 08:00N 39°50' W 075°22'0 0.0
2018-Feb-18 07:30N 39°50' W 075°22'0 0.0
2018-Feb-18 07:00N 39°50' W 075°22'0 0.0
2018-Feb-18 06:30N 39°50' W 075°22'0 0.0
2018-Feb-18 06:00N 39°50' W 075°22'0 0.0
2018-Feb-18 05:31N 39°50' W 075°22'0 0.0
2018-Feb-18 05:00N 39°50' W 075°22'0 0.0
2018-Feb-18 04:30N 39°50' W 075°22'0 0.0
2018-Feb-18 04:01N 39°50' W 075°22'0 0.0
2018-Feb-18 03:31N 39°50' W 075°22'0 0.0
2018-Feb-18 03:01N 39°50' W 075°22'0 0.0
2018-Feb-18 02:30N 39°50' W 075°22'0 0.0
2018-Feb-18 02:00N 39°50' W 075°22'0 0.0
2018-Feb-18 01:30N 39°50' W 075°22'0 0.0
2018-Feb-18 01:00N 39°50' W 075°22'0 0.0
2018-Feb-18 00:30N 39°50' W 075°22'0 0.0
2018-Feb-18 00:01N 39°50' W 075°22'0 0.0
2018-Feb-17 23:30N 39°50' W 075°22'0 0.0
2018-Feb-17 23:00N 39°50' W 075°22'0 0.0
2018-Feb-17 22:30N 39°50' W 075°22'0 0.0
2018-Feb-17 22:00N 39°50' W 075°22'0 0.0
2018-Feb-17 21:30N 39°50' W 075°22'0 0.2
2018-Feb-17 21:00N 39°50' W 075°21'0 0.2
2018-Feb-17 20:30N 39°50' W 075°21'0 0.0
2018-Feb-17 20:00N 39°50' W 075°21'0 0.0
2018-Feb-17 19:30N 39°50' W 075°21'0 0.0
2018-Feb-17 19:00N 39°50' W 075°21'0 0.0
2018-Feb-17 18:30N 39°50' W 075°21'0 0.0
2018-Feb-17 18:00N 39°50' W 075°21'0 0.0
2018-Feb-17 17:30N 39°50' W 075°21'0 0.0
2018-Feb-17 17:00N 39°50' W 075°21'0 0.0
2018-Feb-17 16:30N 39°50' W 075°21'0 0.6
2018-Feb-17 16:00N 39°49' W 075°22'0 0.0
2018-Feb-17 15:30N 39°49' W 075°22'0 0.0
2018-Feb-17 15:00N 39°49' W 075°22'0 0.0
2018-Feb-17 14:31N 39°49' W 075°22'0 0.0
2018-Feb-17 14:00N 39°49' W 075°22'0 0.0
2018-Feb-17 13:30N 39°49' W 075°22'0 0.0
2018-Feb-17 13:01N 39°49' W 075°22'0 0.0
2018-Feb-17 12:31N 39°49' W 075°22'0 0.0
2018-Feb-17 12:00N 39°49' W 075°22'0 0.0
2018-Feb-16 18:54N 39°49' W 075°22'0 0.0
2018-Feb-16 18:30N 39°49' W 075°22'0 0.1
2018-Feb-16 18:00N 39°49' W 075°22'0 0.0
2018-Feb-16 17:31N 39°49' W 075°22'0 0.1
2018-Feb-16 17:00N 39°49' W 075°22'0 0.5
2018-Feb-16 16:30N 39°50' W 075°22'0 0.0
2018-Feb-16 16:00N 39°50' W 075°22'0 0.5
2018-Feb-16 15:31N 39°49' W 075°22'0 0.0
2018-Feb-16 15:01N 39°49' W 075°22'0 0.0
2018-Feb-16 14:30N 39°49' W 075°22'0 0.0
2018-Feb-16 14:00N 39°49' W 075°22'0 0.0
2018-Feb-16 13:30N 39°49' W 075°22'0 0.0
2018-Feb-16 13:00N 39°49' W 075°22'0 0.0
2018-Feb-16 12:31N 39°49' W 075°22'0 0.0
2018-Feb-16 12:01N 39°49' W 075°22'0 0.0
2018-Feb-16 11:30N 39°49' W 075°22'0 0.0
2018-Feb-16 11:00N 39°49' W 075°22'0 0.0
2018-Feb-16 10:31N 39°49' W 075°22'0 0.0
2018-Feb-16 10:00N 39°49' W 075°22'0 0.0
2018-Feb-16 09:30N 39°49' W 075°22'0 0.0
2018-Feb-16 09:00N 39°49' W 075°22'0 0.0
2018-Feb-16 08:30N 39°49' W 075°22'0 0.0
2018-Feb-16 08:00N 39°49' W 075°22'0 0.0
2018-Feb-16 07:30N 39°49' W 075°22'0 0.0
2018-Feb-16 07:00N 39°49' W 075°22'0 0.0
2018-Feb-16 06:31N 39°49' W 075°22'0 0.0
2018-Feb-16 06:01N 39°49' W 075°22'0 0.0
2018-Feb-16 05:30N 39°49' W 075°22'0 0.0
2018-Feb-16 05:00N 39°49' W 075°22'0 0.0
2018-Feb-16 04:30N 39°49' W 075°22'0 0.0
2018-Feb-16 04:01N 39°49' W 075°22'0 0.0
2018-Feb-16 03:30N 39°49' W 075°22'0 0.0
2018-Feb-16 03:01N 39°49' W 075°22'0 0.0
2018-Feb-16 02:30N 39°49' W 075°22'0 0.0
2018-Feb-16 02:01N 39°49' W 075°22'0 0.0
2018-Feb-16 01:30N 39°49' W 075°22'1 0.3
2018-Feb-15 23:19N 39°50' W 075°23'2 6.3
2018-Feb-15 23:00N 39°48' W 075°25'3 5.8
2018-Feb-15 22:30N 39°47' W 075°28'3 5.8
2018-Feb-15 22:00N 39°44' W 075°30'3 5.7
2018-Feb-15 21:31N 39°42' W 075°31'3 6.7
2018-Feb-15 21:01N 39°39' W 075°33'3 5.6
2018-Feb-15 20:30N 39°36' W 075°34'3 6.0
2018-Feb-15 20:01N 39°33' W 075°32'3 6.2
2018-Feb-15 19:31N 39°30' W 075°33'3 5.9
2018-Feb-15 19:00N 39°27' W 075°33'3 6.3
2018-Feb-15 18:30N 39°25' W 075°31'2 4.9
2018-Feb-15 18:00N 39°23' W 075°29'2 3.6
2018-Feb-15 17:31N 39°22' W 075°27'3 5.9
2018-Feb-15 17:00N 39°20' W 075°25'6 7.0
2018-Feb-15 16:06N 39°15' W 075°19'1 7.1
2018-Feb-15 16:01N 39°14' W 075°19'5 7.1
2018-Feb-15 15:15N 39°10' W 075°15'2 7.1
2018-Feb-15 15:00N 39°08' W 075°14'5 7.1
2018-Feb-15 14:15N 39°04' W 075°10'  

Dump ship's entire track history